Nippon Maru — 3FDA7 — position and weather

sailwx.info

Track history (hours):
 
Tides and Currents Weather Stations Pressure Air Temp Water Temp Dewpoint Dewpoint Depression Visibility Wind Speed Wind Dir Waves Ship Positions

Nippon Maru

Last reported at 2017-Sep-20 09:50 UTC. Time now 2017-Sep-25 11:29 UTC.
Position N 34°35' W 123°05'.

Length 190 m; draft 11.8 m.

Type: Cargo ship. MMSI: 353814000.

Date/timePositionNaut miles runAvg speedWind from/ knotsBaromVisibWave heightAir tempDewpointWater temp
2017-Sep-20 09:50N 34°35' W 123°05'7 9.3
2017-Sep-20 09:02N 34°34' W 122°56'0 8.8
2017-Sep-20 09:00N 34°34' W 122°55'5 9.3
2017-Sep-20 08:30N 34°34' W 122°50'15 9.1
2017-Sep-20 06:52N 34°33' W 122°32'3 8.7
2017-Sep-20 06:29N 34°33' W 122°28'5 8.8
2017-Sep-20 05:57N 34°33' W 122°22'6 8.6
2017-Sep-20 05:15N 34°32' W 122°15'2 8.5
2017-Sep-20 05:00N 34°32' W 122°12'4 8.5
2017-Sep-20 04:30N 34°32' W 122°07'5 8.9
2017-Sep-20 03:57N 34°32' W 122°01'4 9.0
2017-Sep-20 03:30N 34°31' W 121°56'4 8.6
2017-Sep-20 03:00N 34°31' W 121°51'4 8.7
2017-Sep-20 02:30N 34°31' W 121°46'5 9.0
2017-Sep-20 02:00N 34°30' W 121°40'4 8.9
2017-Sep-20 01:30N 34°30' W 121°35'5 9.1
2017-Sep-20 01:00N 34°30' W 121°29'5 9.2
2017-Sep-20 00:30N 34°29' W 121°24'5 9.4
2017-Sep-20 00:00N 34°29' W 121°18'5 9.4
2017-Sep-19 23:30N 34°28' W 121°12'5 9.5
2017-Sep-19 23:00N 34°28' W 121°07'5 9.7
2017-Sep-19 22:30N 34°28' W 121°01'5 9.9
2017-Sep-19 22:00N 34°27' W 120°55'510.4
2017-Sep-19 21:30N 34°26' W 120°49'510.8
2017-Sep-19 21:00N 34°24' W 120°43'711.2
2017-Sep-19 20:22N 34°22' W 120°34'411.5
2017-Sep-19 20:00N 34°21' W 120°29'611.7
2017-Sep-19 19:28N 34°19' W 120°22'712.1
2017-Sep-19 18:54N 34°18' W 120°14'512.3
2017-Sep-19 18:30N 34°16' W 120°08'611.9
2017-Sep-19 18:00N 34°15' W 120°01'612.1
2017-Sep-19 17:30N 34°13' W 119°54'611.9
2017-Sep-19 17:00N 34°12' W 119°47'611.7
2017-Sep-19 16:30N 34°10' W 119°41'611.8
2017-Sep-19 15:59N 34°08' W 119°34'612.0
2017-Sep-19 15:29N 34°07' W 119°26'712.0
2017-Sep-19 14:55N 34°05' W 119°19'511.6
2017-Sep-19 14:28N 34°03' W 119°13'611.7
2017-Sep-19 13:57N 33°60' W 119°06'611.8
2017-Sep-19 13:28N 33°57' W 119°00'511.7
2017-Sep-19 13:00N 33°54' W 118°55'611.7
2017-Sep-19 12:30N 33°52' W 118°49'612.1
2017-Sep-19 12:00N 33°49' W 118°42'611.9
2017-Sep-19 11:30N 33°46' W 118°36'611.9
2017-Sep-19 11:00N 33°43' W 118°30'611.3
2017-Sep-19 10:30N 33°40' W 118°24'510.3
2017-Sep-19 10:00N 33°38' W 118°18'4 8.8
2017-Sep-19 09:30N 33°39' W 118°13'4 8.0
2017-Sep-19 09:00N 33°43' W 118°11'2 4.6
2017-Sep-19 08:30N 33°45' W 118°12'0 0.0
2017-Sep-19 07:27N 33°45' W 118°12'0 0.0
2017-Sep-19 06:39N 33°45' W 118°12'0 0.0
2017-Sep-19 06:21N 33°45' W 118°12'0 0.0
2017-Sep-19 05:57N 33°45' W 118°12'0 0.0
2017-Sep-19 05:27N 33°45' W 118°12'0 0.0
2017-Sep-19 04:51N 33°45' W 118°12'0 0.0
2017-Sep-19 04:30N 33°45' W 118°12'0 0.0
2017-Sep-19 03:39N 33°45' W 118°12'0 0.0
2017-Sep-19 03:27N 33°45' W 118°12'0 0.0
2017-Sep-19 02:57N 33°45' W 118°12'0 0.0
2017-Sep-19 02:27N 33°45' W 118°12'0 0.0
2017-Sep-19 02:00N 33°45' W 118°12'0 0.0
2017-Sep-19 01:27N 33°45' W 118°12'0 0.0
2017-Sep-19 00:51N 33°45' W 118°12'0 0.0
2017-Sep-19 00:27N 33°45' W 118°12'0 0.0
2017-Sep-18 23:54N 33°45' W 118°12'0 0.0
2017-Sep-18 23:30N 33°45' W 118°12'0 0.0
2017-Sep-18 22:45N 33°45' W 118°12'0 0.0
2017-Sep-18 22:21N 33°45' W 118°12'0 0.0
2017-Sep-18 21:57N 33°45' W 118°12'0 0.0
2017-Sep-18 21:27N 33°45' W 118°12'0 0.0
2017-Sep-18 21:00N 33°45' W 118°12'0 0.0
2017-Sep-18 20:06N 33°45' W 118°12'0 0.0
2017-Sep-18 20:00N 33°45' W 118°12'0 0.0
2017-Sep-18 19:24N 33°45' W 118°12'0 0.0
2017-Sep-18 18:51N 33°45' W 118°12'0 0.0
2017-Sep-18 17:33N 33°45' W 118°12'0 0.0
2017-Sep-18 17:24N 33°45' W 118°12'0 0.0
2017-Sep-18 17:00N 33°45' W 118°12'0 0.0
2017-Sep-18 15:39N 33°45' W 118°12'0 0.0
2017-Sep-18 15:21N 33°45' W 118°12'0 0.0
2017-Sep-18 14:57N 33°45' W 118°12'0 0.0
2017-Sep-18 14:18N 33°45' W 118°12'0 0.0
2017-Sep-18 14:00N 33°45' W 118°12'0 0.0
2017-Sep-18 13:15N 33°45' W 118°12'0 0.0
2017-Sep-18 12:54N 33°45' W 118°12'0 0.0
2017-Sep-18 12:30N 33°45' W 118°12'0 0.0
2017-Sep-18 12:00N 33°45' W 118°12'0 0.0
2017-Sep-18 11:24N 33°45' W 118°12'0 0.0
2017-Sep-18 10:51N 33°45' W 118°12'0 0.0
2017-Sep-18 10:30N 33°45' W 118°12'0 0.0
2017-Sep-18 08:51N 33°45' W 118°12'0 0.0
2017-Sep-18 08:30N 33°45' W 118°12'0 0.0
2017-Sep-18 07:57N 33°45' W 118°12'0 0.0
2017-Sep-18 07:21N 33°45' W 118°12'0 0.0
2017-Sep-18 06:00N 33°45' W 118°12'0 0.0
2017-Sep-18 05:27N 33°45' W 118°12'0 0.0
2017-Sep-18 04:42N 33°45' W 118°12'0 0.0
2017-Sep-18 04:30N 33°45' W 118°12'0 0.0
2017-Sep-18 03:57N 33°45' W 118°12'0 0.0
2017-Sep-18 03:21N 33°45' W 118°12'0 0.0
2017-Sep-18 02:15N 33°45' W 118°12'0 0.0
2017-Sep-18 00:57N 33°45' W 118°12'0 0.0
2017-Sep-18 00:27N 33°45' W 118°12'0 0.0
2017-Sep-17 23:57N 33°45' W 118°12'0 0.0
2017-Sep-17 23:27N 33°45' W 118°12'0 0.0
2017-Sep-17 23:00N 33°45' W 118°12'0 0.0
2017-Sep-17 22:27N 33°45' W 118°12'0 0.0
2017-Sep-17 21:45N 33°45' W 118°12'0 0.0
2017-Sep-17 21:24N 33°45' W 118°12'0 0.0
2017-Sep-17 20:03N 33°45' W 118°12'0 0.0
2017-Sep-17 19:45N 33°45' W 118°12'0 0.0
2017-Sep-17 19:21N 33°45' W 118°12'0 0.0
2017-Sep-17 18:57N 33°45' W 118°12'0 0.0
2017-Sep-17 17:45N 33°45' W 118°12'0 0.0
2017-Sep-17 13:03N 33°45' W 118°12'0 0.0
2017-Sep-17 13:00N 33°45' W 118°12'0 0.0
2017-Sep-17 12:30N 33°45' W 118°12'0 0.0
2017-Sep-17 11:51N 33°45' W 118°12'0 0.0
2017-Sep-17 11:18N 33°45' W 118°12'0 0.0
2017-Sep-17 10:06N 33°45' W 118°12'0 0.0
2017-Sep-17 09:51N 33°45' W 118°12'0 0.0
2017-Sep-17 09:21N 33°45' W 118°12'0 0.0
2017-Sep-17 08:51N 33°45' W 118°12'0 0.0
2017-Sep-17 08:27N 33°45' W 118°12'0 0.0
2017-Sep-17 07:30N 33°45' W 118°12'0 0.0
2017-Sep-17 07:00N 33°45' W 118°12'0 0.0
2017-Sep-17 06:15N 33°45' W 118°12'0 0.0
2017-Sep-17 05:55N 33°45' W 118°12'0 0.0
2017-Sep-17 05:27N 33°45' W 118°12'0 0.0
2017-Sep-17 04:54N 33°45' W 118°12'0 0.0
2017-Sep-17 03:39N 33°45' W 118°12'0 0.0
2017-Sep-17 03:27N 33°45' W 118°12'0 0.0
2017-Sep-17 02:42N 33°45' W 118°12'0 0.0
2017-Sep-17 02:00N 33°45' W 118°12'0 0.0
2017-Sep-17 01:27N 33°45' W 118°12'0 0.0
2017-Sep-17 01:00N 33°45' W 118°12'0 0.0
2017-Sep-17 00:27N 33°45' W 118°12'0 0.0
2017-Sep-17 00:00N 33°45' W 118°12'0 0.0
2017-Sep-16 23:30N 33°45' W 118°12'0 0.0
2017-Sep-16 23:00N 33°45' W 118°12'0 0.0
2017-Sep-16 22:09N 33°45' W 118°12'0 0.0
2017-Sep-16 21:57N 33°45' W 118°12'0 0.0
2017-Sep-16 21:27N 33°45' W 118°12'0 0.0
2017-Sep-16 20:57N 33°45' W 118°12'0 0.0
2017-Sep-16 20:27N 33°45' W 118°12'0 0.0
2017-Sep-16 19:57N 33°45' W 118°12'0 0.0
2017-Sep-16 19:30N 33°45' W 118°12'0 0.0
2017-Sep-16 19:00N 33°45' W 118°12'0 0.0
2017-Sep-16 18:27N 33°45' W 118°12'0 0.0
2017-Sep-16 17:57N 33°45' W 118°12'0 0.0
2017-Sep-16 15:39N 33°45' W 118°12'0 0.0
2017-Sep-16 15:24N 33°45' W 118°12'0 0.0
2017-Sep-16 13:42N 33°45' W 118°12'0 0.0
2017-Sep-16 13:24N 33°45' W 118°12'0 0.0
2017-Sep-16 11:27N 33°45' W 118°12'0 0.0
2017-Sep-16 11:00N 33°45' W 118°12'0 0.0
2017-Sep-16 10:24N 33°45' W 118°12'0 0.0
2017-Sep-16 09:57N 33°45' W 118°12'0 0.0
2017-Sep-16 09:15N 33°45' W 118°12'0 0.0
2017-Sep-16 08:45N 33°45' W 118°12'0 0.0
2017-Sep-16 07:27N 33°45' W 118°12'0 0.0
2017-Sep-16 07:00N 33°45' W 118°12'0 0.0
2017-Sep-16 06:27N 33°45' W 118°12'0 0.0
2017-Sep-16 05:54N 33°45' W 118°12'0 0.0
2017-Sep-16 05:30N 33°45' W 118°12'0 0.0
2017-Sep-16 04:51N 33°45' W 118°12'0 0.0
2017-Sep-16 04:27N 33°45' W 118°12'0 0.0
2017-Sep-16 03:54N 33°45' W 118°12'0 0.0
2017-Sep-16 03:30N 33°45' W 118°12'0 0.0
2017-Sep-16 03:00N 33°45' W 118°12'1 2.4
2017-Sep-16 02:30N 33°44' W 118°13'0 0.1
2017-Sep-16 01:59N 33°44' W 118°12'0 0.0
2017-Sep-16 01:20N 33°44' W 118°12'0 0.1
2017-Sep-16 00:59N 33°44' W 118°13'0 0.0
2017-Sep-16 00:26N 33°44' W 118°13'0 0.0
2017-Sep-15 23:56N 33°44' W 118°13'0 0.0
2017-Sep-15 23:29N 33°44' W 118°13'0 0.0
2017-Sep-15 22:56N 33°44' W 118°13'0 0.0
2017-Sep-15 22:29N 33°44' W 118°13'0 0.0
2017-Sep-15 21:59N 33°44' W 118°13'0 0.0
2017-Sep-15 21:26N 33°44' W 118°13'0 0.0
2017-Sep-15 20:56N 33°44' W 118°13'0 0.0
2017-Sep-15 20:29N 33°44' W 118°13'0 0.0
2017-Sep-15 19:50N 33°44' W 118°13'0 0.0
2017-Sep-15 19:29N 33°44' W 118°13'0 0.0
2017-Sep-15 18:53N 33°44' W 118°13'0 0.0
2017-Sep-15 18:29N 33°44' W 118°13'0 0.0
2017-Sep-15 17:59N 33°44' W 118°13'0 0.1
2017-Sep-15 17:29N 33°44' W 118°13'0 0.1
2017-Sep-15 16:11N 33°44' W 118°13'0 0.1
2017-Sep-15 15:56N 33°44' W 118°13'0 0.0
2017-Sep-15 15:29N 33°44' W 118°13'0 0.1
2017-Sep-15 14:53N 33°43' W 118°13'0 0.0
2017-Sep-15 14:29N 33°43' W 118°13'0 0.0
2017-Sep-15 13:56N 33°43' W 118°13'0 0.0
2017-Sep-15 13:26N 33°44' W 118°13'0 0.0
2017-Sep-15 12:59N 33°43' W 118°13'0 0.1
2017-Sep-15 12:29N 33°43' W 118°13'0 0.2
2017-Sep-15 11:59N 33°44' W 118°13'0 0.1
2017-Sep-15 11:29N 33°44' W 118°13'0 0.0
2017-Sep-15 10:59N 33°44' W 118°13'0 0.0
2017-Sep-15 10:29N 33°44' W 118°13'0 0.0
2017-Sep-15 09:59N 33°44' W 118°13'0 0.0
2017-Sep-15 09:23N 33°44' W 118°13'0 0.0
2017-Sep-15 08:59N 33°44' W 118°13'0 0.0
2017-Sep-15 08:29N 33°44' W 118°13'0 0.0
2017-Sep-15 07:59N 33°44' W 118°13'0 0.0
2017-Sep-15 07:23N 33°44' W 118°13'0 0.0
2017-Sep-15 06:53N 33°44' W 118°13'0 0.0
2017-Sep-15 06:29N 33°44' W 118°13'0 0.0
2017-Sep-15 05:56N 33°44' W 118°13'0 0.0
2017-Sep-15 05:17N 33°44' W 118°13'0 0.2
2017-Sep-15 04:59N 33°44' W 118°12'0 0.0
2017-Sep-15 04:26N 33°44' W 118°12'0 0.0
2017-Sep-15 03:59N 33°44' W 118°12'0 0.0
2017-Sep-15 03:20N 33°44' W 118°12'0 0.0
2017-Sep-15 02:50N 33°44' W 118°12'0 0.0
2017-Sep-15 01:47N 33°44' W 118°12'0 0.0
2017-Sep-15 01:23N 33°44' W 118°12'0 0.0
2017-Sep-15 00:53N 33°44' W 118°12'0 0.1
2017-Sep-15 00:29N 33°44' W 118°13'0 0.0
2017-Sep-14 23:59N 33°44' W 118°13'0 0.0
2017-Sep-14 23:26N 33°44' W 118°13'0 0.0
2017-Sep-14 22:59N 33°44' W 118°13'0 0.0
2017-Sep-14 22:23N 33°44' W 118°13'0 0.0
2017-Sep-14 21:56N 33°44' W 118°13'0 0.0
2017-Sep-14 21:29N 33°44' W 118°13'0 0.0
2017-Sep-14 20:59N 33°44' W 118°13'0 0.0
2017-Sep-14 20:14N 33°44' W 118°13'0 0.0
2017-Sep-14 19:56N 33°44' W 118°13'0 0.0
2017-Sep-14 19:20N 33°44' W 118°13'0 0.0
2017-Sep-14 18:35N 33°44' W 118°13'0 0.0
2017-Sep-14 18:29N 33°44' W 118°13'0 0.0
2017-Sep-14 17:59N 33°44' W 118°13'0 0.1
2017-Sep-14 17:20N 33°44' W 118°13'0 0.1
2017-Sep-14 16:59N 33°44' W 118°13'0 0.2
2017-Sep-14 16:29N 33°44' W 118°13'0 0.1
2017-Sep-14 15:59N 33°44' W 118°13'0 0.1
2017-Sep-14 15:26N 33°43' W 118°13'0 0.1
2017-Sep-14 14:59N 33°43' W 118°13'0 0.0
2017-Sep-14 14:14N 33°43' W 118°13'0 0.2
2017-Sep-14 13:59N 33°43' W 118°13'0 0.0
2017-Sep-14 13:29N 33°43' W 118°13'0 0.0
2017-Sep-14 12:59N 33°44' W 118°13'0 0.0
2017-Sep-14 12:26N 33°44' W 118°13'0 0.0
2017-Sep-14 11:59N 33°43' W 118°13'0 0.1
2017-Sep-14 11:29N 33°43' W 118°13'0 0.0
2017-Sep-14 10:50N 33°43' W 118°13'0 0.1
2017-Sep-14 10:29N 33°43' W 118°13'0 0.0
2017-Sep-14 09:41N 33°43' W 118°13'0 0.0
2017-Sep-14 09:29N 33°43' W 118°13'0 0.0
2017-Sep-14 08:59N 33°43' W 118°13'0 0.0
2017-Sep-14 08:29N 33°44' W 118°13'0 0.1
2017-Sep-14 07:59N 33°44' W 118°13'0 0.0
2017-Sep-14 07:29N 33°44' W 118°13'0 0.0
2017-Sep-14 06:59N 33°44' W 118°13'0 0.0
2017-Sep-14 06:29N 33°44' W 118°13'0 0.0
2017-Sep-14 05:56N 33°44' W 118°13'0 0.0
2017-Sep-14 05:29N 33°44' W 118°13'0 0.0
2017-Sep-14 04:56N 33°44' W 118°13'0 0.1
2017-Sep-14 04:26N 33°44' W 118°12'0 0.0
2017-Sep-14 03:56N 33°44' W 118°12'0 0.0
2017-Sep-14 03:05N 33°44' W 118°12'0 0.0
2017-Sep-14 02:56N 33°44' W 118°12'0 0.0
2017-Sep-14 02:26N 33°44' W 118°12'0 0.0
2017-Sep-14 01:53N 33°44' W 118°12'0 0.0
2017-Sep-14 01:26N 33°44' W 118°12'0 0.0
2017-Sep-14 00:59N 33°44' W 118°12'0 0.0
2017-Sep-14 00:29N 33°44' W 118°12'0 0.0
2017-Sep-13 23:56N 33°44' W 118°12'0 0.1
2017-Sep-13 23:29N 33°44' W 118°13'0 0.1
2017-Sep-13 22:59N 33°44' W 118°12'0 0.1
2017-Sep-13 22:29N 33°44' W 118°13'0 0.0
2017-Sep-13 21:56N 33°44' W 118°13'0 0.0
2017-Sep-13 21:29N 33°44' W 118°13'0 0.0
2017-Sep-13 20:59N 33°44' W 118°13'0 0.0
2017-Sep-13 20:29N 33°44' W 118°13'0 0.0
2017-Sep-13 19:59N 33°44' W 118°13'0 0.0
2017-Sep-13 19:29N 33°44' W 118°13'0 0.0
2017-Sep-13 18:50N 33°44' W 118°13'0 0.0
2017-Sep-13 18:29N 33°44' W 118°13'0 0.0
2017-Sep-13 17:59N 33°44' W 118°13'0 0.0
2017-Sep-13 17:29N 33°44' W 118°13'0 0.0
2017-Sep-13 16:50N 33°44' W 118°13'0 0.0
2017-Sep-13 16:29N 33°44' W 118°13'0 0.0
2017-Sep-13 15:59N 33°44' W 118°13'0 0.0
2017-Sep-13 15:29N 33°44' W 118°13'0 0.0
2017-Sep-13 14:59N 33°44' W 118°13'0 0.0
2017-Sep-13 14:17N 33°44' W 118°13'0 0.0
2017-Sep-13 13:59N 33°44' W 118°13'0 0.0
2017-Sep-13 13:29N 33°44' W 118°13'0 0.0
2017-Sep-13 12:59N 33°44' W 118°13'0 0.1
2017-Sep-13 12:29N 33°44' W 118°13'0 0.1
2017-Sep-13 11:59N 33°43' W 118°13'0 0.1
2017-Sep-13 11:26N 33°44' W 118°13'0 0.1
2017-Sep-13 10:59N 33°44' W 118°13'0 0.1
2017-Sep-13 10:23N 33°44' W 118°12'0 0.1
2017-Sep-13 09:59N 33°44' W 118°13'0 0.0
2017-Sep-13 09:29N 33°44' W 118°13'0 0.0
2017-Sep-13 08:59N 33°44' W 118°13'0 0.0
2017-Sep-13 08:23N 33°44' W 118°13'0 0.1
2017-Sep-13 07:56N 33°44' W 118°12'0 0.1
2017-Sep-13 07:29N 33°44' W 118°13'0 0.1
2017-Sep-13 06:56N 33°44' W 118°13'0 0.0
2017-Sep-13 06:29N 33°44' W 118°13'0 0.0
2017-Sep-13 05:59N 33°44' W 118°13'0 0.0
2017-Sep-13 05:26N 33°44' W 118°13'0 0.0
2017-Sep-13 04:59N 33°44' W 118°13'0 0.1
2017-Sep-13 04:26N 33°44' W 118°12'0 0.1
2017-Sep-13 03:59N 33°44' W 118°13'0 0.0
2017-Sep-13 03:29N 33°44' W 118°13'0 0.0
2017-Sep-13 02:56N 33°44' W 118°13'0 0.0
2017-Sep-13 02:26N 33°44' W 118°13'0 0.0
2017-Sep-13 01:59N 33°44' W 118°13'0 0.0
2017-Sep-13 01:29N 33°44' W 118°13'0 0.0
2017-Sep-13 00:59N 33°44' W 118°13'0 0.1
2017-Sep-13 00:29N 33°44' W 118°12'0 0.1
2017-Sep-12 23:59N 33°44' W 118°13'0 0.0
2017-Sep-12 23:29N 33°44' W 118°13'0 0.0
2017-Sep-12 22:59N 33°44' W 118°13'0 0.0
2017-Sep-12 22:29N 33°44' W 118°13'0 0.0
2017-Sep-12 21:59N 33°44' W 118°13'0 0.0
2017-Sep-12 21:29N 33°44' W 118°13'0 0.0
2017-Sep-12 20:59N 33°44' W 118°13'0 0.0
2017-Sep-12 20:29N 33°44' W 118°13'0 0.0
2017-Sep-12 19:59N 33°44' W 118°13'0 0.0
2017-Sep-12 19:29N 33°44' W 118°13'0 0.0
2017-Sep-12 18:59N 33°44' W 118°13'0 0.0
2017-Sep-12 18:26N 33°44' W 118°13'0 0.0
2017-Sep-12 17:59N 33°44' W 118°13'0 0.0
2017-Sep-12 17:29N 33°44' W 118°13'0 0.0
2017-Sep-12 16:56N 33°44' W 118°13'0 0.0
2017-Sep-12 16:29N 33°44' W 118°13'0 0.1
2017-Sep-12 15:59N 33°44' W 118°13'0 0.0
2017-Sep-12 15:29N 33°44' W 118°13'0 0.0
2017-Sep-12 14:59N 33°44' W 118°13'0 0.1
2017-Sep-12 14:20N 33°44' W 118°13'0 0.0
2017-Sep-12 13:59N 33°44' W 118°13'0 0.0
2017-Sep-12 13:29N 33°44' W 118°13'0 0.0
2017-Sep-12 12:59N 33°44' W 118°13'0 0.0
2017-Sep-12 12:29N 33°44' W 118°13'0 0.0
2017-Sep-12 11:59N 33°44' W 118°13'0 0.0
2017-Sep-12 11:29N 33°44' W 118°13'0 0.0
2017-Sep-12 10:59N 33°44' W 118°13'0 0.0
2017-Sep-12 10:29N 33°44' W 118°13'0 0.1
2017-Sep-12 09:59N 33°44' W 118°12'0 0.1
2017-Sep-12 09:29N 33°44' W 118°13'0 0.0
2017-Sep-12 08:59N 33°44' W 118°13'0 0.0
2017-Sep-12 08:29N 33°44' W 118°13'0 0.0
2017-Sep-12 07:59N 33°44' W 118°13'0 0.0
2017-Sep-12 07:29N 33°44' W 118°13'0 0.0
2017-Sep-12 06:59N 33°44' W 118°13'0 0.0
2017-Sep-12 06:29N 33°44' W 118°13'0 0.0
2017-Sep-12 05:59N 33°44' W 118°13'0 0.1
2017-Sep-12 05:29N 33°44' W 118°13'0 0.0
2017-Sep-12 04:59N 33°44' W 118°13'0 0.0
2017-Sep-12 04:29N 33°44' W 118°13'0 0.0
2017-Sep-12 03:59N 33°44' W 118°13'0 0.0
2017-Sep-12 03:29N 33°44' W 118°13'0 0.0
2017-Sep-12 02:59N 33°44' W 118°13'0 0.0
2017-Sep-12 02:29N 33°44' W 118°13'0 0.0
2017-Sep-12 01:59N 33°44' W 118°13'0 0.1
2017-Sep-12 01:26N 33°44' W 118°13'0 0.0
2017-Sep-12 00:59N 33°44' W 118°13'0 0.0
2017-Sep-12 00:26N 33°44' W 118°13'0 0.0
2017-Sep-11 23:59N 33°44' W 118°13'0 0.1
2017-Sep-11 23:26N 33°44' W 118°12'0 0.1
2017-Sep-11 22:59N 33°44' W 118°13'0 0.1
2017-Sep-11 22:29N 33°44' W 118°12'0 0.1
2017-Sep-11 21:59N 33°44' W 118°13'0 0.0
2017-Sep-11 21:29N 33°44' W 118°13'0 0.0
2017-Sep-11 20:59N 33°44' W 118°13'0 0.0
2017-Sep-11 20:29N 33°44' W 118°13'0 0.0
2017-Sep-11 19:59N 33°44' W 118°13'0 0.0
2017-Sep-11 19:29N 33°44' W 118°13'0 0.0
2017-Sep-11 18:59N 33°44' W 118°13'0 0.0
2017-Sep-11 18:29N 33°44' W 118°13'0 0.1
2017-Sep-11 17:59N 33°44' W 118°13'0 0.2
2017-Sep-11 17:29N 33°44' W 118°13'0 0.0
2017-Sep-11 16:59N 33°44' W 118°13'0 0.0
2017-Sep-11 16:29N 33°44' W 118°13'0 0.0
2017-Sep-11 15:59N 33°44' W 118°13'0 0.0
2017-Sep-11 15:29N 33°44' W 118°13'0 0.0
2017-Sep-11 14:59N 33°44' W 118°13'0 0.0
2017-Sep-11 14:29N 33°44' W 118°13'0 0.0
2017-Sep-11 13:59N 33°44' W 118°13'0 0.0
2017-Sep-11 13:20N 33°44' W 118°13'0 0.0
2017-Sep-11 12:59N 33°44' W 118°13'0 0.0
2017-Sep-11 12:29N 33°44' W 118°13'0 0.0
2017-Sep-11 11:59N 33°44' W 118°13'0 0.0
2017-Sep-11 11:29N 33°44' W 118°13'0 0.0
2017-Sep-11 10:59N 33°44' W 118°13'0 0.2
2017-Sep-11 10:29N 33°44' W 118°13'0 0.0
2017-Sep-11 09:59N 33°44' W 118°13'0 0.1
2017-Sep-11 09:29N 33°43' W 118°13'0 0.1
2017-Sep-11 08:59N 33°43' W 118°13'0 0.2
2017-Sep-11 08:29N 33°43' W 118°13'0 0.2
2017-Sep-11 07:59N 33°44' W 118°13'0 0.1
2017-Sep-11 07:29N 33°44' W 118°13'0 0.1
2017-Sep-11 06:59N 33°44' W 118°13'0 0.2
2017-Sep-11 06:29N 33°43' W 118°13'0 0.0
2017-Sep-11 05:59N 33°43' W 118°13'0 0.0
2017-Sep-11 05:29N 33°43' W 118°13'0 0.2
2017-Sep-11 04:59N 33°44' W 118°13'0 0.0
2017-Sep-11 04:29N 33°44' W 118°13'0 0.0
2017-Sep-11 03:56N 33°44' W 118°13'0 0.0
2017-Sep-11 03:29N 33°44' W 118°13'0 0.0
2017-Sep-11 02:59N 33°44' W 118°13'0 0.0
2017-Sep-11 02:29N 33°44' W 118°13'0 0.1
2017-Sep-11 01:59N 33°44' W 118°13'0 0.0
2017-Sep-11 01:29N 33°44' W 118°13'0 0.0
2017-Sep-11 00:59N 33°44' W 118°13'0 0.0
2017-Sep-11 00:29N 33°44' W 118°13'0 0.0
2017-Sep-10 23:59N 33°44' W 118°13'0 0.0
2017-Sep-10 23:29N 33°44' W 118°13'0 0.0
2017-Sep-10 22:59N 33°44' W 118°13'0 0.0
2017-Sep-10 22:29N 33°44' W 118°13'0 0.0
2017-Sep-10 21:59N 33°44' W 118°13'0 0.0
2017-Sep-10 21:26N 33°44' W 118°13'0 0.0
2017-Sep-10 20:59N 33°44' W 118°13'0 0.0
2017-Sep-10 20:29N 33°44' W 118°13'0 0.0
2017-Sep-10 19:59N 33°44' W 118°13'0 0.0
2017-Sep-10 19:29N 33°44' W 118°13'0 0.0
2017-Sep-10 18:59N 33°44' W 118°13'0 0.0
2017-Sep-10 18:29N 33°44' W 118°13'0 0.0
2017-Sep-10 17:59N 33°44' W 118°13'0 0.0
2017-Sep-10 17:29N 33°44' W 118°13'0 0.0
2017-Sep-10 16:59N 33°44' W 118°13'0 0.1
2017-Sep-10 16:29N 33°44' W 118°13'0 0.1
2017-Sep-10 15:59N 33°43' W 118°13'0 0.1
2017-Sep-10 15:29N 33°43' W 118°13'0 0.1
2017-Sep-10 14:59N 33°43' W 118°13'0 0.1
2017-Sep-10 13:59N 33°44' W 118°13'0 0.0
2017-Sep-10 13:29N 33°44' W 118°13'0 0.0
2017-Sep-10 12:56N 33°44' W 118°13'0 0.0
2017-Sep-10 12:29N 33°44' W 118°13'0 0.0
2017-Sep-10 11:59N 33°44' W 118°13'0 0.0
2017-Sep-10 11:29N 33°44' W 118°13'0 0.0
2017-Sep-10 10:59N 33°43' W 118°13'0 0.0
2017-Sep-10 10:29N 33°43' W 118°13'0 0.1
2017-Sep-10 09:59N 33°43' W 118°13'  
Track history (hours):
 
Tides and Currents Weather Stations Pressure Air Temp Water Temp Dewpoint Dewpoint Depression Visibility Wind Speed Wind Dir Waves Ship Positions

Nippon Maru

Last reported at 2017-Sep-20 09:50 UTC. Time now 2017-Sep-25 11:29 UTC.
Position N 34°35' W 123°05'.

Length 190 m; draft 11.8 m.

Type: Cargo ship. MMSI: 353814000.

Date/timePositionNaut miles runAvg speedWind from/ knotsBaromVisibWave heightAir tempDewpointWater temp
2017-Sep-20 09:50N 34°35' W 123°05'7 9.3
2017-Sep-20 09:02N 34°34' W 122°56'0 8.8
2017-Sep-20 09:00N 34°34' W 122°55'5 9.3
2017-Sep-20 08:30N 34°34' W 122°50'15 9.1
2017-Sep-20 06:52N 34°33' W 122°32'3 8.7
2017-Sep-20 06:29N 34°33' W 122°28'5 8.8
2017-Sep-20 05:57N 34°33' W 122°22'6 8.6
2017-Sep-20 05:15N 34°32' W 122°15'2 8.5
2017-Sep-20 05:00N 34°32' W 122°12'4 8.5
2017-Sep-20 04:30N 34°32' W 122°07'5 8.9
2017-Sep-20 03:57N 34°32' W 122°01'4 9.0
2017-Sep-20 03:30N 34°31' W 121°56'4 8.6
2017-Sep-20 03:00N 34°31' W 121°51'4 8.7
2017-Sep-20 02:30N 34°31' W 121°46'5 9.0
2017-Sep-20 02:00N 34°30' W 121°40'4 8.9
2017-Sep-20 01:30N 34°30' W 121°35'5 9.1
2017-Sep-20 01:00N 34°30' W 121°29'5 9.2
2017-Sep-20 00:30N 34°29' W 121°24'5 9.4
2017-Sep-20 00:00N 34°29' W 121°18'5 9.4
2017-Sep-19 23:30N 34°28' W 121°12'5 9.5
2017-Sep-19 23:00N 34°28' W 121°07'5 9.7
2017-Sep-19 22:30N 34°28' W 121°01'5 9.9
2017-Sep-19 22:00N 34°27' W 120°55'510.4
2017-Sep-19 21:30N 34°26' W 120°49'510.8
2017-Sep-19 21:00N 34°24' W 120°43'711.2
2017-Sep-19 20:22N 34°22' W 120°34'411.5
2017-Sep-19 20:00N 34°21' W 120°29'611.7
2017-Sep-19 19:28N 34°19' W 120°22'712.1
2017-Sep-19 18:54N 34°18' W 120°14'512.3
2017-Sep-19 18:30N 34°16' W 120°08'611.9
2017-Sep-19 18:00N 34°15' W 120°01'612.1
2017-Sep-19 17:30N 34°13' W 119°54'611.9
2017-Sep-19 17:00N 34°12' W 119°47'611.7
2017-Sep-19 16:30N 34°10' W 119°41'611.8
2017-Sep-19 15:59N 34°08' W 119°34'612.0
2017-Sep-19 15:29N 34°07' W 119°26'712.0
2017-Sep-19 14:55N 34°05' W 119°19'511.6
2017-Sep-19 14:28N 34°03' W 119°13'611.7
2017-Sep-19 13:57N 33°60' W 119°06'611.8
2017-Sep-19 13:28N 33°57' W 119°00'511.7
2017-Sep-19 13:00N 33°54' W 118°55'611.7
2017-Sep-19 12:30N 33°52' W 118°49'612.1
2017-Sep-19 12:00N 33°49' W 118°42'611.9
2017-Sep-19 11:30N 33°46' W 118°36'611.9
2017-Sep-19 11:00N 33°43' W 118°30'611.3
2017-Sep-19 10:30N 33°40' W 118°24'510.3
2017-Sep-19 10:00N 33°38' W 118°18'4 8.8
2017-Sep-19 09:30N 33°39' W 118°13'4 8.0
2017-Sep-19 09:00N 33°43' W 118°11'2 4.6
2017-Sep-19 08:30N 33°45' W 118°12'0 0.0
2017-Sep-19 07:27N 33°45' W 118°12'0 0.0
2017-Sep-19 06:39N 33°45' W 118°12'0 0.0
2017-Sep-19 06:21N 33°45' W 118°12'0 0.0
2017-Sep-19 05:57N 33°45' W 118°12'0 0.0
2017-Sep-19 05:27N 33°45' W 118°12'0 0.0
2017-Sep-19 04:51N 33°45' W 118°12'0 0.0
2017-Sep-19 04:30N 33°45' W 118°12'0 0.0
2017-Sep-19 03:39N 33°45' W 118°12'0 0.0
2017-Sep-19 03:27N 33°45' W 118°12'0 0.0
2017-Sep-19 02:57N 33°45' W 118°12'0 0.0
2017-Sep-19 02:27N 33°45' W 118°12'0 0.0
2017-Sep-19 02:00N 33°45' W 118°12'0 0.0
2017-Sep-19 01:27N 33°45' W 118°12'0 0.0
2017-Sep-19 00:51N 33°45' W 118°12'0 0.0
2017-Sep-19 00:27N 33°45' W 118°12'0 0.0
2017-Sep-18 23:54N 33°45' W 118°12'0 0.0
2017-Sep-18 23:30N 33°45' W 118°12'0 0.0
2017-Sep-18 22:45N 33°45' W 118°12'0 0.0
2017-Sep-18 22:21N 33°45' W 118°12'0 0.0
2017-Sep-18 21:57N 33°45' W 118°12'0 0.0
2017-Sep-18 21:27N 33°45' W 118°12'0 0.0
2017-Sep-18 21:00N 33°45' W 118°12'0 0.0
2017-Sep-18 20:06N 33°45' W 118°12'0 0.0
2017-Sep-18 20:00N 33°45' W 118°12'0 0.0
2017-Sep-18 19:24N 33°45' W 118°12'0 0.0
2017-Sep-18 18:51N 33°45' W 118°12'0 0.0
2017-Sep-18 17:33N 33°45' W 118°12'0 0.0
2017-Sep-18 17:24N 33°45' W 118°12'0 0.0
2017-Sep-18 17:00N 33°45' W 118°12'0 0.0
2017-Sep-18 15:39N 33°45' W 118°12'0 0.0
2017-Sep-18 15:21N 33°45' W 118°12'0 0.0
2017-Sep-18 14:57N 33°45' W 118°12'0 0.0
2017-Sep-18 14:18N 33°45' W 118°12'0 0.0
2017-Sep-18 14:00N 33°45' W 118°12'0 0.0
2017-Sep-18 13:15N 33°45' W 118°12'0 0.0
2017-Sep-18 12:54N 33°45' W 118°12'0 0.0
2017-Sep-18 12:30N 33°45' W 118°12'0 0.0
2017-Sep-18 12:00N 33°45' W 118°12'0 0.0
2017-Sep-18 11:24N 33°45' W 118°12'0 0.0
2017-Sep-18 10:51N 33°45' W 118°12'0 0.0
2017-Sep-18 10:30N 33°45' W 118°12'0 0.0
2017-Sep-18 08:51N 33°45' W 118°12'0 0.0
2017-Sep-18 08:30N 33°45' W 118°12'0 0.0
2017-Sep-18 07:57N 33°45' W 118°12'0 0.0
2017-Sep-18 07:21N 33°45' W 118°12'0 0.0
2017-Sep-18 06:00N 33°45' W 118°12'0 0.0
2017-Sep-18 05:27N 33°45' W 118°12'0 0.0
2017-Sep-18 04:42N 33°45' W 118°12'0 0.0
2017-Sep-18 04:30N 33°45' W 118°12'0 0.0
2017-Sep-18 03:57N 33°45' W 118°12'0 0.0
2017-Sep-18 03:21N 33°45' W 118°12'0 0.0
2017-Sep-18 02:15N 33°45' W 118°12'0 0.0
2017-Sep-18 00:57N 33°45' W 118°12'0 0.0
2017-Sep-18 00:27N 33°45' W 118°12'0 0.0
2017-Sep-17 23:57N 33°45' W 118°12'0 0.0
2017-Sep-17 23:27N 33°45' W 118°12'0 0.0
2017-Sep-17 23:00N 33°45' W 118°12'0 0.0
2017-Sep-17 22:27N 33°45' W 118°12'0 0.0
2017-Sep-17 21:45N 33°45' W 118°12'0 0.0
2017-Sep-17 21:24N 33°45' W 118°12'0 0.0
2017-Sep-17 20:03N 33°45' W 118°12'0 0.0
2017-Sep-17 19:45N 33°45' W 118°12'0 0.0
2017-Sep-17 19:21N 33°45' W 118°12'0 0.0
2017-Sep-17 18:57N 33°45' W 118°12'0 0.0
2017-Sep-17 17:45N 33°45' W 118°12'0 0.0
2017-Sep-17 13:03N 33°45' W 118°12'0 0.0
2017-Sep-17 13:00N 33°45' W 118°12'0 0.0
2017-Sep-17 12:30N 33°45' W 118°12'0 0.0
2017-Sep-17 11:51N 33°45' W 118°12'0 0.0
2017-Sep-17 11:18N 33°45' W 118°12'0 0.0
2017-Sep-17 10:06N 33°45' W 118°12'0 0.0
2017-Sep-17 09:51N 33°45' W 118°12'0 0.0
2017-Sep-17 09:21N 33°45' W 118°12'0 0.0
2017-Sep-17 08:51N 33°45' W 118°12'0 0.0
2017-Sep-17 08:27N 33°45' W 118°12'0 0.0
2017-Sep-17 07:30N 33°45' W 118°12'0 0.0
2017-Sep-17 07:00N 33°45' W 118°12'0 0.0
2017-Sep-17 06:15N 33°45' W 118°12'0 0.0
2017-Sep-17 05:55N 33°45' W 118°12'0 0.0
2017-Sep-17 05:27N 33°45' W 118°12'0 0.0
2017-Sep-17 04:54N 33°45' W 118°12'0 0.0
2017-Sep-17 03:39N 33°45' W 118°12'0 0.0
2017-Sep-17 03:27N 33°45' W 118°12'0 0.0
2017-Sep-17 02:42N 33°45' W 118°12'0 0.0
2017-Sep-17 02:00N 33°45' W 118°12'0 0.0
2017-Sep-17 01:27N 33°45' W 118°12'0 0.0
2017-Sep-17 01:00N 33°45' W 118°12'0 0.0
2017-Sep-17 00:27N 33°45' W 118°12'0 0.0
2017-Sep-17 00:00N 33°45' W 118°12'0 0.0
2017-Sep-16 23:30N 33°45' W 118°12'0 0.0
2017-Sep-16 23:00N 33°45' W 118°12'0 0.0
2017-Sep-16 22:09N 33°45' W 118°12'0 0.0
2017-Sep-16 21:57N 33°45' W 118°12'0 0.0
2017-Sep-16 21:27N 33°45' W 118°12'0 0.0
2017-Sep-16 20:57N 33°45' W 118°12'0 0.0
2017-Sep-16 20:27N 33°45' W 118°12'0 0.0
2017-Sep-16 19:57N 33°45' W 118°12'0 0.0
2017-Sep-16 19:30N 33°45' W 118°12'0 0.0
2017-Sep-16 19:00N 33°45' W 118°12'0 0.0
2017-Sep-16 18:27N 33°45' W 118°12'0 0.0
2017-Sep-16 17:57N 33°45' W 118°12'0 0.0
2017-Sep-16 15:39N 33°45' W 118°12'0 0.0
2017-Sep-16 15:24N 33°45' W 118°12'0 0.0
2017-Sep-16 13:42N 33°45' W 118°12'0 0.0
2017-Sep-16 13:24N 33°45' W 118°12'0 0.0
2017-Sep-16 11:27N 33°45' W 118°12'0 0.0
2017-Sep-16 11:00N 33°45' W 118°12'0 0.0
2017-Sep-16 10:24N 33°45' W 118°12'0 0.0
2017-Sep-16 09:57N 33°45' W 118°12'0 0.0
2017-Sep-16 09:15N 33°45' W 118°12'0 0.0
2017-Sep-16 08:45N 33°45' W 118°12'0 0.0
2017-Sep-16 07:27N 33°45' W 118°12'0 0.0
2017-Sep-16 07:00N 33°45' W 118°12'0 0.0
2017-Sep-16 06:27N 33°45' W 118°12'0 0.0
2017-Sep-16 05:54N 33°45' W 118°12'0 0.0
2017-Sep-16 05:30N 33°45' W 118°12'0 0.0
2017-Sep-16 04:51N 33°45' W 118°12'0 0.0
2017-Sep-16 04:27N 33°45' W 118°12'0 0.0
2017-Sep-16 03:54N 33°45' W 118°12'0 0.0
2017-Sep-16 03:30N 33°45' W 118°12'0 0.0
2017-Sep-16 03:00N 33°45' W 118°12'1 2.4
2017-Sep-16 02:30N 33°44' W 118°13'0 0.1
2017-Sep-16 01:59N 33°44' W 118°12'0 0.0
2017-Sep-16 01:20N 33°44' W 118°12'0 0.1
2017-Sep-16 00:59N 33°44' W 118°13'0 0.0
2017-Sep-16 00:26N 33°44' W 118°13'0 0.0
2017-Sep-15 23:56N 33°44' W 118°13'0 0.0
2017-Sep-15 23:29N 33°44' W 118°13'0 0.0
2017-Sep-15 22:56N 33°44' W 118°13'0 0.0
2017-Sep-15 22:29N 33°44' W 118°13'0 0.0
2017-Sep-15 21:59N 33°44' W 118°13'0 0.0
2017-Sep-15 21:26N 33°44' W 118°13'0 0.0
2017-Sep-15 20:56N 33°44' W 118°13'0 0.0
2017-Sep-15 20:29N 33°44' W 118°13'0 0.0
2017-Sep-15 19:50N 33°44' W 118°13'0 0.0
2017-Sep-15 19:29N 33°44' W 118°13'0 0.0
2017-Sep-15 18:53N 33°44' W 118°13'0 0.0
2017-Sep-15 18:29N 33°44' W 118°13'0 0.0
2017-Sep-15 17:59N 33°44' W 118°13'0 0.1
2017-Sep-15 17:29N 33°44' W 118°13'0 0.1
2017-Sep-15 16:11N 33°44' W 118°13'0 0.1
2017-Sep-15 15:56N 33°44' W 118°13'0 0.0
2017-Sep-15 15:29N 33°44' W 118°13'0 0.1
2017-Sep-15 14:53N 33°43' W 118°13'0 0.0
2017-Sep-15 14:29N 33°43' W 118°13'0 0.0
2017-Sep-15 13:56N 33°43' W 118°13'0 0.0
2017-Sep-15 13:26N 33°44' W 118°13'0 0.0
2017-Sep-15 12:59N 33°43' W 118°13'0 0.1
2017-Sep-15 12:29N 33°43' W 118°13'0 0.2
2017-Sep-15 11:59N 33°44' W 118°13'0 0.1
2017-Sep-15 11:29N 33°44' W 118°13'0 0.0
2017-Sep-15 10:59N 33°44' W 118°13'0 0.0
2017-Sep-15 10:29N 33°44' W 118°13'0 0.0
2017-Sep-15 09:59N 33°44' W 118°13'0 0.0
2017-Sep-15 09:23N 33°44' W 118°13'0 0.0
2017-Sep-15 08:59N 33°44' W 118°13'0 0.0
2017-Sep-15 08:29N 33°44' W 118°13'0 0.0
2017-Sep-15 07:59N 33°44' W 118°13'0 0.0
2017-Sep-15 07:23N 33°44' W 118°13'0 0.0
2017-Sep-15 06:53N 33°44' W 118°13'0 0.0
2017-Sep-15 06:29N 33°44' W 118°13'0 0.0
2017-Sep-15 05:56N 33°44' W 118°13'0 0.0
2017-Sep-15 05:17N 33°44' W 118°13'0 0.2
2017-Sep-15 04:59N 33°44' W 118°12'0 0.0
2017-Sep-15 04:26N 33°44' W 118°12'0 0.0
2017-Sep-15 03:59N 33°44' W 118°12'0 0.0
2017-Sep-15 03:20N 33°44' W 118°12'0 0.0
2017-Sep-15 02:50N 33°44' W 118°12'0 0.0
2017-Sep-15 01:47N 33°44' W 118°12'0 0.0
2017-Sep-15 01:23N 33°44' W 118°12'0 0.0
2017-Sep-15 00:53N 33°44' W 118°12'0 0.1
2017-Sep-15 00:29N 33°44' W 118°13'0 0.0
2017-Sep-14 23:59N 33°44' W 118°13'0 0.0
2017-Sep-14 23:26N 33°44' W 118°13'0 0.0
2017-Sep-14 22:59N 33°44' W 118°13'0 0.0
2017-Sep-14 22:23N 33°44' W 118°13'0 0.0
2017-Sep-14 21:56N 33°44' W 118°13'0 0.0
2017-Sep-14 21:29N 33°44' W 118°13'0 0.0
2017-Sep-14 20:59N 33°44' W 118°13'0 0.0
2017-Sep-14 20:14N 33°44' W 118°13'0 0.0
2017-Sep-14 19:56N 33°44' W 118°13'0 0.0
2017-Sep-14 19:20N 33°44' W 118°13'0 0.0
2017-Sep-14 18:35N 33°44' W 118°13'0 0.0
2017-Sep-14 18:29N 33°44' W 118°13'0 0.0
2017-Sep-14 17:59N 33°44' W 118°13'0 0.1
2017-Sep-14 17:20N 33°44' W 118°13'0 0.1
2017-Sep-14 16:59N 33°44' W 118°13'0 0.2
2017-Sep-14 16:29N 33°44' W 118°13'0 0.1
2017-Sep-14 15:59N 33°44' W 118°13'0 0.1
2017-Sep-14 15:26N 33°43' W 118°13'0 0.1
2017-Sep-14 14:59N 33°43' W 118°13'0 0.0
2017-Sep-14 14:14N 33°43' W 118°13'0 0.2
2017-Sep-14 13:59N 33°43' W 118°13'0 0.0
2017-Sep-14 13:29N 33°43' W 118°13'0 0.0
2017-Sep-14 12:59N 33°44' W 118°13'0 0.0
2017-Sep-14 12:26N 33°44' W 118°13'0 0.0
2017-Sep-14 11:59N 33°43' W 118°13'0 0.1
2017-Sep-14 11:29N 33°43' W 118°13'0 0.0
2017-Sep-14 10:50N 33°43' W 118°13'0 0.1
2017-Sep-14 10:29N 33°43' W 118°13'0 0.0
2017-Sep-14 09:41N 33°43' W 118°13'0 0.0
2017-Sep-14 09:29N 33°43' W 118°13'0 0.0
2017-Sep-14 08:59N 33°43' W 118°13'0 0.0
2017-Sep-14 08:29N 33°44' W 118°13'0 0.1
2017-Sep-14 07:59N 33°44' W 118°13'0 0.0
2017-Sep-14 07:29N 33°44' W 118°13'0 0.0
2017-Sep-14 06:59N 33°44' W 118°13'0 0.0
2017-Sep-14 06:29N 33°44' W 118°13'0 0.0
2017-Sep-14 05:56N 33°44' W 118°13'0 0.0
2017-Sep-14 05:29N 33°44' W 118°13'0 0.0
2017-Sep-14 04:56N 33°44' W 118°13'0 0.1
2017-Sep-14 04:26N 33°44' W 118°12'0 0.0
2017-Sep-14 03:56N 33°44' W 118°12'0 0.0
2017-Sep-14 03:05N 33°44' W 118°12'0 0.0
2017-Sep-14 02:56N 33°44' W 118°12'0 0.0
2017-Sep-14 02:26N 33°44' W 118°12'0 0.0
2017-Sep-14 01:53N 33°44' W 118°12'0 0.0
2017-Sep-14 01:26N 33°44' W 118°12'0 0.0
2017-Sep-14 00:59N 33°44' W 118°12'0 0.0
2017-Sep-14 00:29N 33°44' W 118°12'0 0.0
2017-Sep-13 23:56N 33°44' W 118°12'0 0.1
2017-Sep-13 23:29N 33°44' W 118°13'0 0.1
2017-Sep-13 22:59N 33°44' W 118°12'0 0.1
2017-Sep-13 22:29N 33°44' W 118°13'0 0.0
2017-Sep-13 21:56N 33°44' W 118°13'0 0.0
2017-Sep-13 21:29N 33°44' W 118°13'0 0.0
2017-Sep-13 20:59N 33°44' W 118°13'0 0.0
2017-Sep-13 20:29N 33°44' W 118°13'0 0.0
2017-Sep-13 19:59N 33°44' W 118°13'0 0.0
2017-Sep-13 19:29N 33°44' W 118°13'0 0.0
2017-Sep-13 18:50N 33°44' W 118°13'0 0.0
2017-Sep-13 18:29N 33°44' W 118°13'0 0.0
2017-Sep-13 17:59N 33°44' W 118°13'0 0.0
2017-Sep-13 17:29N 33°44' W 118°13'0 0.0
2017-Sep-13 16:50N 33°44' W 118°13'0 0.0
2017-Sep-13 16:29N 33°44' W 118°13'0 0.0
2017-Sep-13 15:59N 33°44' W 118°13'0 0.0
2017-Sep-13 15:29N 33°44' W 118°13'0 0.0
2017-Sep-13 14:59N 33°44' W 118°13'0 0.0
2017-Sep-13 14:17N 33°44' W 118°13'0 0.0
2017-Sep-13 13:59N 33°44' W 118°13'0 0.0
2017-Sep-13 13:29N 33°44' W 118°13'0 0.0
2017-Sep-13 12:59N 33°44' W 118°13'0 0.1
2017-Sep-13 12:29N 33°44' W 118°13'0 0.1
2017-Sep-13 11:59N 33°43' W 118°13'0 0.1
2017-Sep-13 11:26N 33°44' W 118°13'0 0.1
2017-Sep-13 10:59N 33°44' W 118°13'0 0.1
2017-Sep-13 10:23N 33°44' W 118°12'0 0.1
2017-Sep-13 09:59N 33°44' W 118°13'0 0.0
2017-Sep-13 09:29N 33°44' W 118°13'0 0.0
2017-Sep-13 08:59N 33°44' W 118°13'0 0.0
2017-Sep-13 08:23N 33°44' W 118°13'0 0.1
2017-Sep-13 07:56N 33°44' W 118°12'0 0.1
2017-Sep-13 07:29N 33°44' W 118°13'0 0.1
2017-Sep-13 06:56N 33°44' W 118°13'0 0.0
2017-Sep-13 06:29N 33°44' W 118°13'0 0.0
2017-Sep-13 05:59N 33°44' W 118°13'0 0.0
2017-Sep-13 05:26N 33°44' W 118°13'0 0.0
2017-Sep-13 04:59N 33°44' W 118°13'0 0.1
2017-Sep-13 04:26N 33°44' W 118°12'0 0.1
2017-Sep-13 03:59N 33°44' W 118°13'0 0.0
2017-Sep-13 03:29N 33°44' W 118°13'0 0.0
2017-Sep-13 02:56N 33°44' W 118°13'0 0.0
2017-Sep-13 02:26N 33°44' W 118°13'0 0.0
2017-Sep-13 01:59N 33°44' W 118°13'0 0.0
2017-Sep-13 01:29N 33°44' W 118°13'0 0.0
2017-Sep-13 00:59N 33°44' W 118°13'0 0.1
2017-Sep-13 00:29N 33°44' W 118°12'0 0.1
2017-Sep-12 23:59N 33°44' W 118°13'0 0.0
2017-Sep-12 23:29N 33°44' W 118°13'0 0.0
2017-Sep-12 22:59N 33°44' W 118°13'0 0.0
2017-Sep-12 22:29N 33°44' W 118°13'0 0.0
2017-Sep-12 21:59N 33°44' W 118°13'0 0.0
2017-Sep-12 21:29N 33°44' W 118°13'0 0.0
2017-Sep-12 20:59N 33°44' W 118°13'0 0.0
2017-Sep-12 20:29N 33°44' W 118°13'0 0.0
2017-Sep-12 19:59N 33°44' W 118°13'0 0.0
2017-Sep-12 19:29N 33°44' W 118°13'0 0.0
2017-Sep-12 18:59N 33°44' W 118°13'0 0.0
2017-Sep-12 18:26N 33°44' W 118°13'0 0.0
2017-Sep-12 17:59N 33°44' W 118°13'0 0.0
2017-Sep-12 17:29N 33°44' W 118°13'0 0.0
2017-Sep-12 16:56N 33°44' W 118°13'0 0.0
2017-Sep-12 16:29N 33°44' W 118°13'0 0.1
2017-Sep-12 15:59N 33°44' W 118°13'0 0.0
2017-Sep-12 15:29N 33°44' W 118°13'0 0.0
2017-Sep-12 14:59N 33°44' W 118°13'0 0.1
2017-Sep-12 14:20N 33°44' W 118°13'0 0.0
2017-Sep-12 13:59N 33°44' W 118°13'0 0.0
2017-Sep-12 13:29N 33°44' W 118°13'0 0.0
2017-Sep-12 12:59N 33°44' W 118°13'0 0.0
2017-Sep-12 12:29N 33°44' W 118°13'0 0.0
2017-Sep-12 11:59N 33°44' W 118°13'0 0.0
2017-Sep-12 11:29N 33°44' W 118°13'0 0.0
2017-Sep-12 10:59N 33°44' W 118°13'0 0.0
2017-Sep-12 10:29N 33°44' W 118°13'0 0.1
2017-Sep-12 09:59N 33°44' W 118°12'0 0.1
2017-Sep-12 09:29N 33°44' W 118°13'0 0.0
2017-Sep-12 08:59N 33°44' W 118°13'0 0.0
2017-Sep-12 08:29N 33°44' W 118°13'0 0.0
2017-Sep-12 07:59N 33°44' W 118°13'0 0.0
2017-Sep-12 07:29N 33°44' W 118°13'0 0.0
2017-Sep-12 06:59N 33°44' W 118°13'0 0.0
2017-Sep-12 06:29N 33°44' W 118°13'0 0.0
2017-Sep-12 05:59N 33°44' W 118°13'0 0.1
2017-Sep-12 05:29N 33°44' W 118°13'0 0.0
2017-Sep-12 04:59N 33°44' W 118°13'0 0.0
2017-Sep-12 04:29N 33°44' W 118°13'0 0.0
2017-Sep-12 03:59N 33°44' W 118°13'0 0.0
2017-Sep-12 03:29N 33°44' W 118°13'0 0.0
2017-Sep-12 02:59N 33°44' W 118°13'0 0.0
2017-Sep-12 02:29N 33°44' W 118°13'0 0.0
2017-Sep-12 01:59N 33°44' W 118°13'0 0.1
2017-Sep-12 01:26N 33°44' W 118°13'0 0.0
2017-Sep-12 00:59N 33°44' W 118°13'0 0.0
2017-Sep-12 00:26N 33°44' W 118°13'0 0.0
2017-Sep-11 23:59N 33°44' W 118°13'0 0.1
2017-Sep-11 23:26N 33°44' W 118°12'0 0.1
2017-Sep-11 22:59N 33°44' W 118°13'0 0.1
2017-Sep-11 22:29N 33°44' W 118°12'0 0.1
2017-Sep-11 21:59N 33°44' W 118°13'0 0.0
2017-Sep-11 21:29N 33°44' W 118°13'0 0.0
2017-Sep-11 20:59N 33°44' W 118°13'0 0.0
2017-Sep-11 20:29N 33°44' W 118°13'0 0.0
2017-Sep-11 19:59N 33°44' W 118°13'0 0.0
2017-Sep-11 19:29N 33°44' W 118°13'0 0.0
2017-Sep-11 18:59N 33°44' W 118°13'0 0.0
2017-Sep-11 18:29N 33°44' W 118°13'0 0.1
2017-Sep-11 17:59N 33°44' W 118°13'0 0.2
2017-Sep-11 17:29N 33°44' W 118°13'0 0.0
2017-Sep-11 16:59N 33°44' W 118°13'0 0.0
2017-Sep-11 16:29N 33°44' W 118°13'0 0.0
2017-Sep-11 15:59N 33°44' W 118°13'0 0.0
2017-Sep-11 15:29N 33°44' W 118°13'0 0.0
2017-Sep-11 14:59N 33°44' W 118°13'0 0.0
2017-Sep-11 14:29N 33°44' W 118°13'0 0.0
2017-Sep-11 13:59N 33°44' W 118°13'0 0.0
2017-Sep-11 13:20N 33°44' W 118°13'0 0.0
2017-Sep-11 12:59N 33°44' W 118°13'0 0.0
2017-Sep-11 12:29N 33°44' W 118°13'0 0.0
2017-Sep-11 11:59N 33°44' W 118°13'0 0.0
2017-Sep-11 11:29N 33°44' W 118°13'0 0.0
2017-Sep-11 10:59N 33°44' W 118°13'0 0.2
2017-Sep-11 10:29N 33°44' W 118°13'0 0.0
2017-Sep-11 09:59N 33°44' W 118°13'0 0.1
2017-Sep-11 09:29N 33°43' W 118°13'0 0.1
2017-Sep-11 08:59N 33°43' W 118°13'0 0.2
2017-Sep-11 08:29N 33°43' W 118°13'0 0.2
2017-Sep-11 07:59N 33°44' W 118°13'0 0.1
2017-Sep-11 07:29N 33°44' W 118°13'0 0.1
2017-Sep-11 06:59N 33°44' W 118°13'0 0.2
2017-Sep-11 06:29N 33°43' W 118°13'0 0.0
2017-Sep-11 05:59N 33°43' W 118°13'0 0.0
2017-Sep-11 05:29N 33°43' W 118°13'0 0.2
2017-Sep-11 04:59N 33°44' W 118°13'0 0.0
2017-Sep-11 04:29N 33°44' W 118°13'0 0.0
2017-Sep-11 03:56N 33°44' W 118°13'0 0.0
2017-Sep-11 03:29N 33°44' W 118°13'0 0.0
2017-Sep-11 02:59N 33°44' W 118°13'0 0.0
2017-Sep-11 02:29N 33°44' W 118°13'0 0.1
2017-Sep-11 01:59N 33°44' W 118°13'0 0.0
2017-Sep-11 01:29N 33°44' W 118°13'0 0.0
2017-Sep-11 00:59N 33°44' W 118°13'0 0.0
2017-Sep-11 00:29N 33°44' W 118°13'0 0.0
2017-Sep-10 23:59N 33°44' W 118°13'0 0.0
2017-Sep-10 23:29N 33°44' W 118°13'0 0.0
2017-Sep-10 22:59N 33°44' W 118°13'0 0.0
2017-Sep-10 22:29N 33°44' W 118°13'0 0.0
2017-Sep-10 21:59N 33°44' W 118°13'0 0.0
2017-Sep-10 21:26N 33°44' W 118°13'0 0.0
2017-Sep-10 20:59N 33°44' W 118°13'0 0.0
2017-Sep-10 20:29N 33°44' W 118°13'0 0.0
2017-Sep-10 19:59N 33°44' W 118°13'0 0.0
2017-Sep-10 19:29N 33°44' W 118°13'0 0.0
2017-Sep-10 18:59N 33°44' W 118°13'0 0.0
2017-Sep-10 18:29N 33°44' W 118°13'0 0.0
2017-Sep-10 17:59N 33°44' W 118°13'0 0.0
2017-Sep-10 17:29N 33°44' W 118°13'0 0.0
2017-Sep-10 16:59N 33°44' W 118°13'0 0.1
2017-Sep-10 16:29N 33°44' W 118°13'0 0.1
2017-Sep-10 15:59N 33°43' W 118°13'0 0.1
2017-Sep-10 15:29N 33°43' W 118°13'0 0.1
2017-Sep-10 14:59N 33°43' W 118°13'0 0.1
2017-Sep-10 13:59N 33°44' W 118°13'0 0.0
2017-Sep-10 13:29N 33°44' W 118°13'0 0.0
2017-Sep-10 12:56N 33°44' W 118°13'0 0.0
2017-Sep-10 12:29N 33°44' W 118°13'0 0.0
2017-Sep-10 11:59N 33°44' W 118°13'0 0.0
2017-Sep-10 11:29N 33°44' W 118°13'0 0.0
2017-Sep-10 10:59N 33°43' W 118°13'0 0.0
2017-Sep-10 10:29N 33°43' W 118°13'0 0.1
2017-Sep-10 09:59N 33°43' W 118°13'  

Dump ship's entire track history